Pueblo Nuevo, Puerto Rico
Current Conditions -  °F | °C
As of 3:50 AM on Monday 24 Nov 2014 (Local Time) from TJBQ Reporting Station
Clear Clear  
Wind Chill: 73°   Ceiling: Unl
Heat Index: 73°   Visibility: 10mi
Dew Point: 72°   Wind: 7mph
Humidity: 94%   Direction: 110°ESE
Pressure: 29.99"   Gusts: NA
Location:  18.0846°N, 67.0463°W
Report Text: TJBQ 240750Z 11006KT 10SM SKC 23/22 A2999 RMK RWY 08 ATIS Z
Loading
Personal Weather Stations






























Interactive Weather Map New forecast layout! Learn more

10-Day Weather Forecast

Advertisements
Track Severe Weather on mobile